sensor_id;sensor_type;location;lat;lon;timestamp;P1;durP1;ratioP1;P2;durP2;ratioP2
25553;SDS011;13446;50.926;5.332;2024-03-17T00:01:50;20.50;;;11.98;;
25553;SDS011;13446;50.926;5.332;2024-03-17T00:04:15;16.80;;;10.73;;
25553;SDS011;13446;50.926;5.332;2024-03-17T00:06:41;16.92;;;10.88;;
25553;SDS011;13446;50.926;5.332;2024-03-17T00:09:08;15.70;;;9.77;;
25553;SDS011;13446;50.926;5.332;2024-03-17T00:11:34;23.35;;;10.73;;
25553;SDS011;13446;50.926;5.332;2024-03-17T00:14:03;17.95;;;10.48;;
25553;SDS011;13446;50.926;5.332;2024-03-17T00:16:30;16.47;;;9.40;;
25553;SDS011;13446;50.926;5.332;2024-03-17T00:18:55;15.55;;;9.45;;
25553;SDS011;13446;50.926;5.332;2024-03-17T00:21:21;15.35;;;9.80;;
25553;SDS011;13446;50.926;5.332;2024-03-17T00:23:48;17.08;;;10.25;;
25553;SDS011;13446;50.926;5.332;2024-03-17T00:26:16;17.08;;;10.15;;
25553;SDS011;13446;50.926;5.332;2024-03-17T00:28:44;17.50;;;10.23;;
25553;SDS011;13446;50.926;5.332;2024-03-17T00:31:13;22.58;;;11.40;;
25553;SDS011;13446;50.926;5.332;2024-03-17T00:33:39;19.40;;;11.02;;
25553;SDS011;13446;50.926;5.332;2024-03-17T00:36:06;20.20;;;11.18;;
25553;SDS011;13446;50.926;5.332;2024-03-17T00:38:32;15.27;;;10.60;;
25553;SDS011;13446;50.926;5.332;2024-03-17T00:40:58;16.52;;;11.05;;
25553;SDS011;13446;50.926;5.332;2024-03-17T00:43:24;16.95;;;10.60;;
25553;SDS011;13446;50.926;5.332;2024-03-17T00:45:53;16.02;;;10.05;;
25553;SDS011;13446;50.926;5.332;2024-03-17T00:48:19;16.25;;;10.07;;
25553;SDS011;13446;50.926;5.332;2024-03-17T00:50:45;17.45;;;10.93;;
25553;SDS011;13446;50.926;5.332;2024-03-17T00:53:11;20.35;;;11.25;;
25553;SDS011;13446;50.926;5.332;2024-03-17T00:55:37;15.18;;;10.05;;
25553;SDS011;13446;50.926;5.332;2024-03-17T00:58:03;18.30;;;10.43;;
25553;SDS011;13446;50.926;5.332;2024-03-17T01:00:29;18.10;;;10.35;;
25553;SDS011;13446;50.926;5.332;2024-03-17T01:02:57;16.45;;;9.57;;
25553;SDS011;13446;50.926;5.332;2024-03-17T01:05:24;17.75;;;9.68;;
25553;SDS011;13446;50.926;5.332;2024-03-17T01:07:51;16.55;;;10.43;;
25553;SDS011;13446;50.926;5.332;2024-03-17T01:10:18;16.65;;;9.98;;
25553;SDS011;13446;50.926;5.332;2024-03-17T01:12:44;14.25;;;9.50;;
25553;SDS011;13446;50.926;5.332;2024-03-17T01:15:10;17.00;;;10.27;;
25553;SDS011;13446;50.926;5.332;2024-03-17T01:17:36;16.50;;;9.70;;
25553;SDS011;13446;50.926;5.332;2024-03-17T01:20:03;20.75;;;10.55;;
25553;SDS011;13446;50.926;5.332;2024-03-17T01:22:29;15.55;;;10.00;;
25553;SDS011;13446;50.926;5.332;2024-03-17T01:24:55;17.42;;;10.77;;
25553;SDS011;13446;50.926;5.332;2024-03-17T01:27:21;16.55;;;10.35;;
25553;SDS011;13446;50.926;5.332;2024-03-17T01:29:46;18.75;;;10.30;;
25553;SDS011;13446;50.926;5.332;2024-03-17T01:32:12;19.15;;;10.70;;
25553;SDS011;13446;50.926;5.332;2024-03-17T01:34:38;16.05;;;9.77;;
25553;SDS011;13446;50.926;5.332;2024-03-17T01:37:04;16.75;;;10.88;;
25553;SDS011;13446;50.926;5.332;2024-03-17T01:39:30;17.30;;;9.98;;
25553;SDS011;13446;50.926;5.332;2024-03-17T01:41:57;15.70;;;9.70;;
25553;SDS011;13446;50.926;5.332;2024-03-17T01:44:28;16.00;;;10.80;;
25553;SDS011;13446;50.926;5.332;2024-03-17T01:46:56;19.55;;;10.27;;
25553;SDS011;13446;50.926;5.332;2024-03-17T01:49:22;16.50;;;10.18;;
25553;SDS011;13446;50.926;5.332;2024-03-17T01:51:49;18.30;;;10.50;;
25553;SDS011;13446;50.926;5.332;2024-03-17T01:54:16;15.23;;;9.75;;
25553;SDS011;13446;50.926;5.332;2024-03-17T01:56:44;18.10;;;11.07;;
25553;SDS011;13446;50.926;5.332;2024-03-17T01:59:11;17.50;;;10.60;;
25553;SDS011;13446;50.926;5.332;2024-03-17T02:01:37;15.82;;;9.93;;
25553;SDS011;13446;50.926;5.332;2024-03-17T02:04:03;16.23;;;10.52;;
25553;SDS011;13446;50.926;5.332;2024-03-17T02:06:29;17.73;;;10.70;;
25553;SDS011;13446;50.926;5.332;2024-03-17T02:08:55;18.83;;;11.60;;
25553;SDS011;13446;50.926;5.332;2024-03-17T02:11:25;22.05;;;13.35;;
25553;SDS011;13446;50.926;5.332;2024-03-17T02:13:55;27.33;;;14.43;;
25553;SDS011;13446;50.926;5.332;2024-03-17T02:16:21;23.85;;;12.40;;
25553;SDS011;13446;50.926;5.332;2024-03-17T02:18:48;19.70;;;11.35;;
25553;SDS011;13446;50.926;5.332;2024-03-17T02:21:15;24.13;;;11.50;;
25553;SDS011;13446;50.926;5.332;2024-03-17T02:23:44;16.10;;;10.00;;
25553;SDS011;13446;50.926;5.332;2024-03-17T02:26:10;17.13;;;9.60;;
25553;SDS011;13446;50.926;5.332;2024-03-17T02:28:40;15.55;;;10.27;;
25553;SDS011;13446;50.926;5.332;2024-03-17T02:31:07;16.35;;;10.15;;
25553;SDS011;13446;50.926;5.332;2024-03-17T02:33:33;17.35;;;9.82;;
25553;SDS011;13446;50.926;5.332;2024-03-17T02:35:59;16.02;;;9.80;;
25553;SDS011;13446;50.926;5.332;2024-03-17T02:38:26;18.73;;;10.13;;
25553;SDS011;13446;50.926;5.332;2024-03-17T02:41:10;18.70;;;9.85;;
25553;SDS011;13446;50.926;5.332;2024-03-17T02:43:36;17.67;;;9.48;;
25553;SDS011;13446;50.926;5.332;2024-03-17T02:46:02;14.52;;;9.15;;
25553;SDS011;13446;50.926;5.332;2024-03-17T02:48:33;18.33;;;9.40;;
25553;SDS011;13446;50.926;5.332;2024-03-17T02:51:01;14.63;;;9.27;;
25553;SDS011;13446;50.926;5.332;2024-03-17T02:53:27;14.25;;;9.38;;
25553;SDS011;13446;50.926;5.332;2024-03-17T02:55:52;17.02;;;8.70;;
25553;SDS011;13446;50.926;5.332;2024-03-17T02:58:18;16.13;;;8.60;;
25553;SDS011;13446;50.926;5.332;2024-03-17T03:00:45;15.05;;;9.05;;
25553;SDS011;13446;50.926;5.332;2024-03-17T03:03:11;14.40;;;9.00;;
25553;SDS011;13446;50.926;5.332;2024-03-17T03:05:36;15.98;;;8.38;;
25553;SDS011;13446;50.926;5.332;2024-03-17T03:08:03;14.48;;;8.35;;
25553;SDS011;13446;50.926;5.332;2024-03-17T03:10:29;14.00;;;8.60;;
25553;SDS011;13446;50.926;5.332;2024-03-17T03:12:55;14.45;;;7.97;;
25553;SDS011;13446;50.926;5.332;2024-03-17T03:15:21;13.48;;;7.80;;
25553;SDS011;13446;50.926;5.332;2024-03-17T03:17:47;15.65;;;8.13;;
25553;SDS011;13446;50.926;5.332;2024-03-17T03:20:13;12.18;;;8.02;;
25553;SDS011;13446;50.926;5.332;2024-03-17T03:22:40;16.10;;;8.50;;
25553;SDS011;13446;50.926;5.332;2024-03-17T03:25:05;12.45;;;7.65;;
25553;SDS011;13446;50.926;5.332;2024-03-17T03:27:32;13.35;;;7.82;;
25553;SDS011;13446;50.926;5.332;2024-03-17T03:29:58;12.88;;;8.02;;
25553;SDS011;13446;50.926;5.332;2024-03-17T03:32:25;12.75;;;7.90;;
25553;SDS011;13446;50.926;5.332;2024-03-17T03:34:51;11.75;;;7.85;;
25553;SDS011;13446;50.926;5.332;2024-03-17T03:37:16;12.38;;;7.50;;
25553;SDS011;13446;50.926;5.332;2024-03-17T03:39:42;12.05;;;7.95;;
25553;SDS011;13446;50.926;5.332;2024-03-17T03:42:07;11.52;;;7.88;;
25553;SDS011;13446;50.926;5.332;2024-03-17T03:44:33;11.82;;;7.75;;
25553;SDS011;13446;50.926;5.332;2024-03-17T03:46:59;15.10;;;8.60;;
25553;SDS011;13446;50.926;5.332;2024-03-17T03:49:26;15.23;;;8.20;;
25553;SDS011;13446;50.926;5.332;2024-03-17T03:51:51;9.73;;;7.32;;
25553;SDS011;13446;50.926;5.332;2024-03-17T03:54:17;12.57;;;7.00;;
25553;SDS011;13446;50.926;5.332;2024-03-17T03:56:43;12.55;;;7.22;;
25553;SDS011;13446;50.926;5.332;2024-03-17T03:59:09;12.63;;;6.95;;
25553;SDS011;13446;50.926;5.332;2024-03-17T04:01:35;12.32;;;7.43;;
25553;SDS011;13446;50.926;5.332;2024-03-17T04:04:00;11.30;;;7.13;;
25553;SDS011;13446;50.926;5.332;2024-03-17T04:06:28;14.85;;;6.38;;
25553;SDS011;13446;50.926;5.332;2024-03-17T04:08:54;12.15;;;6.15;;
25553;SDS011;13446;50.926;5.332;2024-03-17T04:11:19;14.63;;;6.15;;
25553;SDS011;13446;50.926;5.332;2024-03-17T04:13:45;11.25;;;5.68;;
25553;SDS011;13446;50.926;5.332;2024-03-17T04:16:12;8.57;;;5.95;;
25553;SDS011;13446;50.926;5.332;2024-03-17T04:18:37;11.80;;;5.85;;
25553;SDS011;13446;50.926;5.332;2024-03-17T04:21:07;10.05;;;5.35;;
25553;SDS011;13446;50.926;5.332;2024-03-17T04:23:33;9.00;;;5.38;;
25553;SDS011;13446;50.926;5.332;2024-03-17T04:25:59;8.25;;;5.60;;
25553;SDS011;13446;50.926;5.332;2024-03-17T04:28:26;7.22;;;4.82;;
25553;SDS011;13446;50.926;5.332;2024-03-17T04:30:52;10.20;;;5.43;;
25553;SDS011;13446;50.926;5.332;2024-03-17T04:33:17;8.23;;;4.75;;
25553;SDS011;13446;50.926;5.332;2024-03-17T04:35:43;8.73;;;5.53;;
25553;SDS011;13446;50.926;5.332;2024-03-17T04:38:09;11.70;;;5.00;;
25553;SDS011;13446;50.926;5.332;2024-03-17T04:40:39;8.30;;;5.32;;
25553;SDS011;13446;50.926;5.332;2024-03-17T04:43:07;10.25;;;4.97;;
25553;SDS011;13446;50.926;5.332;2024-03-17T04:45:33;11.48;;;5.30;;
25553;SDS011;13446;50.926;5.332;2024-03-17T04:47:59;7.55;;;5.30;;
25553;SDS011;13446;50.926;5.332;2024-03-17T04:50:25;9.32;;;4.88;;
25553;SDS011;13446;50.926;5.332;2024-03-17T04:52:51;9.05;;;4.75;;
25553;SDS011;13446;50.926;5.332;2024-03-17T04:55:17;8.52;;;5.20;;
25553;SDS011;13446;50.926;5.332;2024-03-17T04:57:44;7.82;;;5.22;;
25553;SDS011;13446;50.926;5.332;2024-03-17T05:00:10;8.90;;;5.18;;
25553;SDS011;13446;50.926;5.332;2024-03-17T05:02:37;9.43;;;4.53;;
25553;SDS011;13446;50.926;5.332;2024-03-17T05:05:04;8.15;;;5.10;;
25553;SDS011;13446;50.926;5.332;2024-03-17T05:07:30;5.72;;;4.80;;
25553;SDS011;13446;50.926;5.332;2024-03-17T05:09:56;9.35;;;4.70;;
25553;SDS011;13446;50.926;5.332;2024-03-17T05:12:22;8.55;;;5.03;;
25553;SDS011;13446;50.926;5.332;2024-03-17T05:14:48;6.82;;;5.10;;
25553;SDS011;13446;50.926;5.332;2024-03-17T05:17:14;8.18;;;5.07;;
25553;SDS011;13446;50.926;5.332;2024-03-17T05:19:39;8.05;;;4.93;;
25553;SDS011;13446;50.926;5.332;2024-03-17T05:22:05;8.13;;;5.13;;
25553;SDS011;13446;50.926;5.332;2024-03-17T05:24:31;10.52;;;4.38;;
25553;SDS011;13446;50.926;5.332;2024-03-17T05:26:57;8.75;;;4.85;;
25553;SDS011;13446;50.926;5.332;2024-03-17T05:29:23;9.00;;;5.10;;
25553;SDS011;13446;50.926;5.332;2024-03-17T05:31:49;10.18;;;5.35;;
25553;SDS011;13446;50.926;5.332;2024-03-17T05:34:15;6.35;;;4.72;;
25553;SDS011;13446;50.926;5.332;2024-03-17T05:36:42;9.00;;;5.30;;
25553;SDS011;13446;50.926;5.332;2024-03-17T05:39:07;12.10;;;5.32;;
25553;SDS011;13446;50.926;5.332;2024-03-17T05:41:33;8.10;;;5.35;;
25553;SDS011;13446;50.926;5.332;2024-03-17T05:43:59;9.80;;;5.13;;
25553;SDS011;13446;50.926;5.332;2024-03-17T05:46:28;8.48;;;5.03;;
25553;SDS011;13446;50.926;5.332;2024-03-17T05:48:54;9.73;;;6.45;;
25553;SDS011;13446;50.926;5.332;2024-03-17T05:51:20;10.75;;;5.50;;
25553;SDS011;13446;50.926;5.332;2024-03-17T05:53:46;13.15;;;5.57;;
25553;SDS011;13446;50.926;5.332;2024-03-17T05:56:12;10.15;;;5.80;;
25553;SDS011;13446;50.926;5.332;2024-03-17T05:58:38;10.02;;;5.63;;
25553;SDS011;13446;50.926;5.332;2024-03-17T06:01:04;12.63;;;6.05;;
25553;SDS011;13446;50.926;5.332;2024-03-17T06:03:37;12.43;;;5.90;;
25553;SDS011;13446;50.926;5.332;2024-03-17T06:06:03;8.38;;;5.30;;
25553;SDS011;13446;50.926;5.332;2024-03-17T06:08:30;10.98;;;5.47;;
25553;SDS011;13446;50.926;5.332;2024-03-17T06:10:56;8.68;;;5.10;;
25553;SDS011;13446;50.926;5.332;2024-03-17T06:13:25;6.75;;;5.03;;
25553;SDS011;13446;50.926;5.332;2024-03-17T06:15:51;10.40;;;5.40;;
25553;SDS011;13446;50.926;5.332;2024-03-17T06:18:17;9.30;;;5.30;;
25553;SDS011;13446;50.926;5.332;2024-03-17T06:20:43;7.68;;;5.30;;
25553;SDS011;13446;50.926;5.332;2024-03-17T06:23:10;10.27;;;5.07;;
25553;SDS011;13446;50.926;5.332;2024-03-17T06:25:40;8.00;;;5.13;;
25553;SDS011;13446;50.926;5.332;2024-03-17T06:28:11;6.68;;;5.07;;
25553;SDS011;13446;50.926;5.332;2024-03-17T06:30:45;6.57;;;4.72;;
25553;SDS011;13446;50.926;5.332;2024-03-17T06:33:19;8.38;;;4.53;;
25553;SDS011;13446;50.926;5.332;2024-03-17T06:35:45;8.60;;;5.50;;
25553;SDS011;13446;50.926;5.332;2024-03-17T06:38:12;7.07;;;4.65;;
25553;SDS011;13446;50.926;5.332;2024-03-17T06:40:38;13.55;;;4.95;;
25553;SDS011;13446;50.926;5.332;2024-03-17T06:43:05;10.43;;;5.68;;
25553;SDS011;13446;50.926;5.332;2024-03-17T06:45:31;9.18;;;4.65;;
25553;SDS011;13446;50.926;5.332;2024-03-17T06:47:57;12.10;;;4.63;;
25553;SDS011;13446;50.926;5.332;2024-03-17T06:50:23;11.68;;;4.80;;
25553;SDS011;13446;50.926;5.332;2024-03-17T06:52:49;7.72;;;5.18;;
25553;SDS011;13446;50.926;5.332;2024-03-17T06:55:17;9.57;;;4.72;;
25553;SDS011;13446;50.926;5.332;2024-03-17T06:57:43;9.18;;;4.85;;
25553;SDS011;13446;50.926;5.332;2024-03-17T07:00:12;7.30;;;4.82;;
25553;SDS011;13446;50.926;5.332;2024-03-17T07:02:43;9.10;;;4.85;;
25553;SDS011;13446;50.926;5.332;2024-03-17T07:05:13;9.05;;;5.20;;
25553;SDS011;13446;50.926;5.332;2024-03-17T07:07:42;7.50;;;4.68;;
25553;SDS011;13446;50.926;5.332;2024-03-17T07:10:09;7.85;;;5.25;;
25553;SDS011;13446;50.926;5.332;2024-03-17T07:12:38;6.70;;;4.95;;
25553;SDS011;13446;50.926;5.332;2024-03-17T07:15:05;8.32;;;4.68;;
25553;SDS011;13446;50.926;5.332;2024-03-17T07:17:31;6.75;;;4.75;;
25553;SDS011;13446;50.926;5.332;2024-03-17T07:19:57;7.50;;;5.18;;
25553;SDS011;13446;50.926;5.332;2024-03-17T07:22:23;6.43;;;4.30;;
25553;SDS011;13446;50.926;5.332;2024-03-17T07:24:51;4.93;;;3.78;;
25553;SDS011;13446;50.926;5.332;2024-03-17T07:27:20;6.82;;;4.60;;
25553;SDS011;13446;50.926;5.332;2024-03-17T07:29:46;7.20;;;3.75;;
25553;SDS011;13446;50.926;5.332;2024-03-17T07:32:12;6.10;;;4.53;;
25553;SDS011;13446;50.926;5.332;2024-03-17T07:34:37;9.18;;;4.00;;
25553;SDS011;13446;50.926;5.332;2024-03-17T07:37:03;6.20;;;4.32;;
25553;SDS011;13446;50.926;5.332;2024-03-17T07:39:32;9.95;;;4.93;;
25553;SDS011;13446;50.926;5.332;2024-03-17T07:42:00;5.40;;;4.00;;
25553;SDS011;13446;50.926;5.332;2024-03-17T07:44:27;10.95;;;4.45;;
25553;SDS011;13446;50.926;5.332;2024-03-17T07:46:58;8.73;;;4.30;;
25553;SDS011;13446;50.926;5.332;2024-03-17T07:49:25;10.23;;;4.85;;
25553;SDS011;13446;50.926;5.332;2024-03-17T07:51:50;9.18;;;5.10;;
25553;SDS011;13446;50.926;5.332;2024-03-17T07:54:16;9.82;;;5.63;;
25553;SDS011;13446;50.926;5.332;2024-03-17T07:56:43;8.00;;;5.00;;
25553;SDS011;13446;50.926;5.332;2024-03-17T07:59:11;9.10;;;4.75;;
25553;SDS011;13446;50.926;5.332;2024-03-17T08:01:39;8.18;;;4.55;;
25553;SDS011;13446;50.926;5.332;2024-03-17T08:04:04;8.13;;;4.70;;
25553;SDS011;13446;50.926;5.332;2024-03-17T08:06:30;7.50;;;4.80;;
25553;SDS011;13446;50.926;5.332;2024-03-17T08:08:56;10.65;;;5.18;;
25553;SDS011;13446;50.926;5.332;2024-03-17T08:11:22;9.48;;;4.53;;
25553;SDS011;13446;50.926;5.332;2024-03-17T08:13:49;7.80;;;4.15;;
25553;SDS011;13446;50.926;5.332;2024-03-17T08:16:16;7.07;;;4.57;;
25553;SDS011;13446;50.926;5.332;2024-03-17T08:18:42;7.88;;;4.72;;
25553;SDS011;13446;50.926;5.332;2024-03-17T08:21:08;6.72;;;4.70;;
25553;SDS011;13446;50.926;5.332;2024-03-17T08:23:34;9.75;;;4.35;;
25553;SDS011;13446;50.926;5.332;2024-03-17T08:26:06;6.25;;;4.80;;
25553;SDS011;13446;50.926;5.332;2024-03-17T08:28:33;8.23;;;4.35;;
25553;SDS011;13446;50.926;5.332;2024-03-17T08:30:59;8.65;;;4.72;;
25553;SDS011;13446;50.926;5.332;2024-03-17T08:33:26;11.23;;;5.10;;
25553;SDS011;13446;50.926;5.332;2024-03-17T08:35:56;7.07;;;5.00;;
25553;SDS011;13446;50.926;5.332;2024-03-17T08:38:22;11.80;;;6.05;;
25553;SDS011;13446;50.926;5.332;2024-03-17T08:40:50;10.38;;;5.40;;
25553;SDS011;13446;50.926;5.332;2024-03-17T08:43:16;9.35;;;4.85;;
25553;SDS011;13446;50.926;5.332;2024-03-17T08:45:42;13.65;;;5.32;;
25553;SDS011;13446;50.926;5.332;2024-03-17T08:48:08;12.38;;;5.32;;
25553;SDS011;13446;50.926;5.332;2024-03-17T08:50:37;8.70;;;5.35;;
25553;SDS011;13446;50.926;5.332;2024-03-17T08:53:03;8.93;;;4.80;;
25553;SDS011;13446;50.926;5.332;2024-03-17T08:55:29;6.88;;;4.93;;
25553;SDS011;13446;50.926;5.332;2024-03-17T08:57:55;9.25;;;4.60;;
25553;SDS011;13446;50.926;5.332;2024-03-17T09:00:21;7.38;;;4.47;;
25553;SDS011;13446;50.926;5.332;2024-03-17T09:02:47;6.82;;;4.30;;
25553;SDS011;13446;50.926;5.332;2024-03-17T09:05:12;11.48;;;4.68;;
25553;SDS011;13446;50.926;5.332;2024-03-17T09:07:38;7.65;;;4.30;;
25553;SDS011;13446;50.926;5.332;2024-03-17T09:10:05;6.82;;;4.32;;
25553;SDS011;13446;50.926;5.332;2024-03-17T09:12:33;6.40;;;4.47;;
25553;SDS011;13446;50.926;5.332;2024-03-17T09:14:59;8.70;;;4.22;;
25553;SDS011;13446;50.926;5.332;2024-03-17T09:17:25;6.65;;;3.80;;
25553;SDS011;13446;50.926;5.332;2024-03-17T09:19:51;6.35;;;4.05;;
25553;SDS011;13446;50.926;5.332;2024-03-17T09:22:17;4.93;;;3.95;;
25553;SDS011;13446;50.926;5.332;2024-03-17T09:24:42;6.43;;;4.03;;
25553;SDS011;13446;50.926;5.332;2024-03-17T09:27:09;9.13;;;3.70;;
25553;SDS011;13446;50.926;5.332;2024-03-17T09:29:35;5.15;;;3.20;;
25553;SDS011;13446;50.926;5.332;2024-03-17T09:32:01;8.32;;;3.67;;
25553;SDS011;13446;50.926;5.332;2024-03-17T09:34:27;8.32;;;4.00;;
25553;SDS011;13446;50.926;5.332;2024-03-17T09:36:53;4.85;;;3.47;;
25553;SDS011;13446;50.926;5.332;2024-03-17T09:39:19;8.20;;;3.63;;
25553;SDS011;13446;50.926;5.332;2024-03-17T09:41:44;5.53;;;3.70;;
25553;SDS011;13446;50.926;5.332;2024-03-17T09:44:12;6.68;;;3.30;;
25553;SDS011;13446;50.926;5.332;2024-03-17T09:46:41;7.47;;;3.45;;
25553;SDS011;13446;50.926;5.332;2024-03-17T09:49:14;6.95;;;3.60;;
25553;SDS011;13446;50.926;5.332;2024-03-17T09:51:41;4.63;;;3.42;;
25553;SDS011;13446;50.926;5.332;2024-03-17T09:54:18;7.47;;;3.65;;
25553;SDS011;13446;50.926;5.332;2024-03-17T09:56:44;8.07;;;3.38;;
25553;SDS011;13446;50.926;5.332;2024-03-17T09:59:10;9.63;;;3.70;;
25553;SDS011;13446;50.926;5.332;2024-03-17T10:01:36;5.18;;;3.17;;
25553;SDS011;13446;50.926;5.332;2024-03-17T10:04:02;5.47;;;3.20;;
25553;SDS011;13446;50.926;5.332;2024-03-17T10:06:44;5.97;;;2.85;;
25553;SDS011;13446;50.926;5.332;2024-03-17T10:09:16;9.05;;;3.25;;
25553;SDS011;13446;50.926;5.332;2024-03-17T10:11:46;5.40;;;3.13;;
25553;SDS011;13446;50.926;5.332;2024-03-17T10:14:12;5.20;;;2.88;;
25553;SDS011;13446;50.926;5.332;2024-03-17T10:16:43;7.50;;;3.22;;
25553;SDS011;13446;50.926;5.332;2024-03-17T10:19:14;7.28;;;3.60;;
25553;SDS011;13446;50.926;5.332;2024-03-17T10:21:50;3.90;;;2.80;;
25553;SDS011;13446;50.926;5.332;2024-03-17T10:24:24;5.63;;;3.10;;
25553;SDS011;13446;50.926;5.332;2024-03-17T10:26:54;3.67;;;2.90;;
25553;SDS011;13446;50.926;5.332;2024-03-17T10:29:33;8.65;;;3.45;;
25553;SDS011;13446;50.926;5.332;2024-03-17T10:32:20;6.93;;;3.42;;
25553;SDS011;13446;50.926;5.332;2024-03-17T10:34:49;7.47;;;3.50;;
25553;SDS011;13446;50.926;5.332;2024-03-17T10:37:16;8.07;;;3.40;;
25553;SDS011;13446;50.926;5.332;2024-03-17T10:39:45;7.00;;;3.40;;
25553;SDS011;13446;50.926;5.332;2024-03-17T10:42:14;7.40;;;3.37;;
25553;SDS011;13446;50.926;5.332;2024-03-17T10:44:49;6.18;;;3.00;;
25553;SDS011;13446;50.926;5.332;2024-03-17T10:47:25;6.97;;;3.50;;
25553;SDS011;13446;50.926;5.332;2024-03-17T10:49:52;7.63;;;3.65;;
25553;SDS011;13446;50.926;5.332;2024-03-17T10:52:20;5.00;;;3.30;;
25553;SDS011;13446;50.926;5.332;2024-03-17T10:54:51;4.30;;;3.40;;
25553;SDS011;13446;50.926;5.332;2024-03-17T10:57:29;4.80;;;3.58;;
25553;SDS011;13446;50.926;5.332;2024-03-17T11:00:00;5.95;;;3.65;;
25553;SDS011;13446;50.926;5.332;2024-03-17T11:07:51;7.50;;;3.78;;
25553;SDS011;13446;50.926;5.332;2024-03-17T11:10:21;5.40;;;3.17;;
25553;SDS011;13446;50.926;5.332;2024-03-17T11:20:37;7.22;;;3.58;;
25553;SDS011;13446;50.926;5.332;2024-03-17T11:23:04;6.78;;;3.83;;
25553;SDS011;13446;50.926;5.332;2024-03-17T11:28:02;4.70;;;3.67;;
25553;SDS011;13446;50.926;5.332;2024-03-17T11:30:41;9.20;;;3.30;;
25553;SDS011;13446;50.926;5.332;2024-03-17T11:38:53;7.55;;;3.70;;
25553;SDS011;13446;50.926;5.332;2024-03-17T11:41:38;7.63;;;3.70;;
25553;SDS011;13446;50.926;5.332;2024-03-17T11:49:29;5.22;;;3.25;;
25553;SDS011;13446;50.926;5.332;2024-03-17T11:52:00;10.00;;;3.60;;
25553;SDS011;13446;50.926;5.332;2024-03-17T11:54:32;5.05;;;3.10;;
25553;SDS011;13446;50.926;5.332;2024-03-17T11:57:02;4.65;;;3.20;;
25553;SDS011;13446;50.926;5.332;2024-03-17T11:59:31;6.40;;;3.22;;
25553;SDS011;13446;50.926;5.332;2024-03-17T12:01:58;5.97;;;3.45;;
25553;SDS011;13446;50.926;5.332;2024-03-17T12:04:38;9.73;;;3.40;;
25553;SDS011;13446;50.926;5.332;2024-03-17T12:07:07;7.88;;;3.45;;
25553;SDS011;13446;50.926;5.332;2024-03-17T12:09:41;8.23;;;3.40;;
25553;SDS011;13446;50.926;5.332;2024-03-17T12:12:19;10.30;;;3.72;;
25553;SDS011;13446;50.926;5.332;2024-03-17T12:14:48;6.90;;;3.33;;
25553;SDS011;13446;50.926;5.332;2024-03-17T12:17:19;8.43;;;3.22;;
25553;SDS011;13446;50.926;5.332;2024-03-17T12:19:46;4.47;;;3.10;;
25553;SDS011;13446;50.926;5.332;2024-03-17T12:22:16;8.43;;;2.92;;
25553;SDS011;13446;50.926;5.332;2024-03-17T12:24:46;4.68;;;3.00;;
25553;SDS011;13446;50.926;5.332;2024-03-17T12:27:20;6.15;;;3.33;;
25553;SDS011;13446;50.926;5.332;2024-03-17T12:29:50;7.60;;;2.63;;
25553;SDS011;13446;50.926;5.332;2024-03-17T12:32:17;5.22;;;2.58;;
25553;SDS011;13446;50.926;5.332;2024-03-17T12:34:46;7.13;;;2.22;;
25553;SDS011;13446;50.926;5.332;2024-03-17T12:37:26;3.40;;;2.10;;
25553;SDS011;13446;50.926;5.332;2024-03-17T12:40:02;5.57;;;2.08;;
25553;SDS011;13446;50.926;5.332;2024-03-17T12:42:28;6.53;;;2.75;;
25553;SDS011;13446;50.926;5.332;2024-03-17T12:45:01;4.90;;;2.72;;
25553;SDS011;13446;50.926;5.332;2024-03-17T12:47:28;5.40;;;2.58;;
25553;SDS011;13446;50.926;5.332;2024-03-17T12:49:56;5.57;;;2.25;;
25553;SDS011;13446;50.926;5.332;2024-03-17T12:52:29;5.00;;;2.30;;
25553;SDS011;13446;50.926;5.332;2024-03-17T12:57:44;5.25;;;2.22;;
25553;SDS011;13446;50.926;5.332;2024-03-17T13:00:31;6.30;;;2.60;;
25553;SDS011;13446;50.926;5.332;2024-03-17T13:02:58;5.07;;;2.40;;
25553;SDS011;13446;50.926;5.332;2024-03-17T13:05:24;3.90;;;2.50;;
25553;SDS011;13446;50.926;5.332;2024-03-17T13:07:51;6.35;;;2.38;;
25553;SDS011;13446;50.926;5.332;2024-03-17T13:10:19;4.68;;;2.80;;
25553;SDS011;13446;50.926;5.332;2024-03-17T13:12:46;5.95;;;3.03;;
25553;SDS011;13446;50.926;5.332;2024-03-17T13:15:16;4.95;;;2.63;;
25553;SDS011;13446;50.926;5.332;2024-03-17T13:17:43;4.15;;;2.63;;
25553;SDS011;13446;50.926;5.332;2024-03-17T13:20:15;4.88;;;2.70;;
25553;SDS011;13446;50.926;5.332;2024-03-17T13:22:42;5.13;;;2.35;;
25553;SDS011;13446;50.926;5.332;2024-03-17T13:25:13;6.65;;;2.40;;
25553;SDS011;13446;50.926;5.332;2024-03-17T13:27:44;6.10;;;2.63;;
25553;SDS011;13446;50.926;5.332;2024-03-17T13:30:10;7.13;;;2.92;;
25553;SDS011;13446;50.926;5.332;2024-03-17T13:32:38;8.57;;;2.90;;
25553;SDS011;13446;50.926;5.332;2024-03-17T13:35:05;6.30;;;2.85;;
25553;SDS011;13446;50.926;5.332;2024-03-17T13:37:33;4.25;;;2.67;;
25553;SDS011;13446;50.926;5.332;2024-03-17T13:40:00;3.15;;;2.42;;
25553;SDS011;13446;50.926;5.332;2024-03-17T13:42:28;5.53;;;2.65;;
25553;SDS011;13446;50.926;5.332;2024-03-17T13:44:54;4.18;;;2.40;;
25553;SDS011;13446;50.926;5.332;2024-03-17T13:47:21;5.53;;;2.80;;
25553;SDS011;13446;50.926;5.332;2024-03-17T13:49:47;6.47;;;2.20;;
25553;SDS011;13446;50.926;5.332;2024-03-17T13:52:13;6.22;;;2.47;;
25553;SDS011;13446;50.926;5.332;2024-03-17T13:54:40;5.18;;;2.30;;
25553;SDS011;13446;50.926;5.332;2024-03-17T13:57:06;3.80;;;2.72;;
25553;SDS011;13446;50.926;5.332;2024-03-17T13:59:32;5.15;;;2.55;;
25553;SDS011;13446;50.926;5.332;2024-03-17T14:01:59;4.32;;;2.03;;
25553;SDS011;13446;50.926;5.332;2024-03-17T14:04:25;7.88;;;1.90;;
25553;SDS011;13446;50.926;5.332;2024-03-17T14:06:51;6.68;;;2.75;;
25553;SDS011;13446;50.926;5.332;2024-03-17T14:09:16;6.05;;;2.17;;
25553;SDS011;13446;50.926;5.332;2024-03-17T14:11:43;6.95;;;2.20;;
25553;SDS011;13446;50.926;5.332;2024-03-17T14:14:11;4.13;;;2.08;;
25553;SDS011;13446;50.926;5.332;2024-03-17T14:16:37;4.97;;;2.47;;
25553;SDS011;13446;50.926;5.332;2024-03-17T14:19:04;5.13;;;2.15;;
25553;SDS011;13446;50.926;5.332;2024-03-17T14:21:30;6.40;;;2.30;;
25553;SDS011;13446;50.926;5.332;2024-03-17T14:23:55;5.90;;;2.10;;
25553;SDS011;13446;50.926;5.332;2024-03-17T14:26:21;5.95;;;2.72;;
25553;SDS011;13446;50.926;5.332;2024-03-17T14:28:48;4.75;;;2.47;;
25553;SDS011;13446;50.926;5.332;2024-03-17T14:31:19;4.63;;;2.13;;
25553;SDS011;13446;50.926;5.332;2024-03-17T14:33:45;4.75;;;2.72;;
25553;SDS011;13446;50.926;5.332;2024-03-17T14:36:10;5.18;;;2.33;;
25553;SDS011;13446;50.926;5.332;2024-03-17T14:38:36;5.10;;;2.40;;
25553;SDS011;13446;50.926;5.332;2024-03-17T14:41:02;4.00;;;2.30;;
25553;SDS011;13446;50.926;5.332;2024-03-17T14:43:29;6.15;;;2.58;;
25553;SDS011;13446;50.926;5.332;2024-03-17T14:45:55;6.78;;;3.00;;
25553;SDS011;13446;50.926;5.332;2024-03-17T14:48:21;4.63;;;2.40;;
25553;SDS011;13446;50.926;5.332;2024-03-17T14:50:46;5.28;;;2.70;;
25553;SDS011;13446;50.926;5.332;2024-03-17T14:53:12;3.05;;;2.17;;
25553;SDS011;13446;50.926;5.332;2024-03-17T14:55:38;6.13;;;2.33;;
25553;SDS011;13446;50.926;5.332;2024-03-17T14:58:04;6.70;;;2.10;;
25553;SDS011;13446;50.926;5.332;2024-03-17T15:00:31;4.13;;;1.90;;
25553;SDS011;13446;50.926;5.332;2024-03-17T15:02:57;5.07;;;1.88;;
25553;SDS011;13446;50.926;5.332;2024-03-17T15:05:23;4.45;;;2.10;;
25553;SDS011;13446;50.926;5.332;2024-03-17T15:07:50;2.78;;;1.95;;
25553;SDS011;13446;50.926;5.332;2024-03-17T15:10:16;5.03;;;2.13;;
25553;SDS011;13446;50.926;5.332;2024-03-17T15:12:48;3.58;;;2.00;;